Time;durP1;ratioP1;P1;durP2;ratioP2;P2;SDS_P1;SDS_P2;PMS_P1;PMS_P2;Temp;Humidity;BMP_temperature;BMP_pressure;BME280_temperature;BME280_humidity;BME280_pressure;Samples;Min_cycle;Max_cycle;Signal;HPM_P1;HPM_P2
2022/05/03 00:00:37;;;;;;;3.30;3.10;;;19.30;42.30;;;;;;5056453;28;20513;-60
2022/05/03 00:03:19;;;;;;;3.37;3.20;;;19.20;42.20;;;;;;5055399;28;20430;-60
2022/05/03 00:05:58;;;;;;;3.27;3.10;;;19.20;42.20;;;;;;5063391;28;20452;-59
2022/05/03 00:08:39;;;;;;;3.43;3.23;;;19.20;42.20;;;;;;5056917;28;20512;-59
2022/05/03 00:11:28;;;;;;;3.00;2.80;;;19.20;42.30;;;;;;5059753;28;20465;-59
2022/05/03 00:14:14;;;;;;;3.17;3.00;;;19.20;42.20;;;;;;5064381;28;20519;-59
2022/05/03 00:16:41;;;;;;;3.10;3.00;;;19.20;42.20;;;;;;5071522;27;20445;-60
2022/05/03 00:19:07;;;;;;;3.07;2.87;;;19.20;42.20;;;;;;5084007;28;20419;-59
2022/05/03 00:21:37;;;;;;;3.20;3.00;;;19.30;42.30;;;;;;5082493;28;20417;-59
2022/05/03 00:24:04;;;;;;;3.30;3.10;;;19.20;42.20;;;;;;5088691;28;20220;-60
2022/05/03 00:26:31;;;;;;;2.93;2.83;;;19.20;42.20;;;;;;5082297;28;20462;-60
2022/05/03 00:28:57;;;;;;;2.87;2.70;;;19.20;42.20;;;;;;5089586;28;20454;-59
2022/05/03 00:31:24;;;;;;;3.27;3.07;;;19.20;42.20;;;;;;5077846;28;20420;-59
2022/05/03 00:33:52;;;;;;;2.90;2.70;;;19.20;42.20;;;;;;5079521;27;20413;-60
2022/05/03 00:36:18;;;;;;;3.20;3.00;;;19.20;42.20;;;;;;5084616;28;20417;-60
2022/05/03 00:38:43;;;;;;;2.70;2.60;;;19.20;42.20;;;;;;5078838;28;20491;-60
2022/05/03 00:41:13;;;;;;;3.00;2.80;;;19.20;42.20;;;;;;5081465;28;20758;-59
2022/05/03 00:43:52;;;;;;;3.30;3.10;;;19.20;43.00;;;;;;5080072;28;20322;-61
2022/05/03 00:46:22;;;;;;;3.17;3.00;;;19.20;42.20;;;;;;5084238;28;25395;-60
2022/05/03 00:49:09;;;;;;;2.20;2.10;;;19.20;42.20;;;;;;5079029;27;22477;-59
2022/05/03 00:52:00;;;;;;;2.87;2.77;;;19.20;42.20;;;;;;5064976;28;20425;-60
2022/05/03 00:54:34;;;;;;;2.20;2.10;;;19.20;42.20;;;;;;5064266;28;20410;-59
2022/05/03 00:57:15;;;;;;;3.10;2.90;;;19.20;42.20;;;;;;5059639;28;20428;-61
2022/05/03 00:59:50;;;;;;;2.70;2.60;;;19.20;42.20;;;;;;5059934;28;20569;-61
2022/05/03 01:02:23;;;;;;;2.60;2.50;;;19.20;42.20;;;;;;5057216;28;20428;-59
2022/05/03 01:05:06;;;;;;;2.90;2.80;;;19.20;42.30;;;;;;5064235;28;20476;-62
2022/05/03 01:07:57;;;;;;;3.00;2.90;;;19.20;42.20;;;;;;5058714;28;20707;-60
2022/05/03 01:11:04;;;;;;;3.20;3.00;;;19.20;42.20;;;;;;5058357;28;20427;-59
2022/05/03 01:13:34;;;;;;;2.77;2.67;;;19.20;42.30;;;;;;5058108;28;20417;-60
2022/05/03 01:16:11;;;;;;;2.90;2.80;;;19.20;42.30;;;;;;5059378;28;20428;-60
2022/05/03 01:18:54;;;;;;;2.50;2.40;;;19.20;42.30;;;;;;5060327;28;20425;-59
2022/05/03 01:21:49;;;;;;;2.63;2.53;;;19.20;42.30;;;;;;5060723;28;20535;-60
2022/05/03 01:24:21;;;;;;;2.63;2.53;;;19.20;42.30;;;;;;5063132;28;20450;-59
2022/05/03 01:26:55;;;;;;;2.87;2.70;;;19.20;42.30;;;;;;5059868;28;20478;-61
2022/05/03 01:29:34;;;;;;;2.60;2.50;;;19.20;42.30;;;;;;5059728;28;20428;-60
2022/05/03 01:32:09;;;;;;;2.70;2.60;;;19.20;42.40;;;;;;5060892;28;20444;-60
2022/05/03 01:34:36;;;;;;;2.80;2.70;;;19.20;42.40;;;;;;5060213;28;20516;-59
2022/05/03 01:37:06;;;;;;;2.80;2.70;;;19.20;42.40;;;;;;5060939;28;20409;-60
2022/05/03 01:40:04;;;;;;;2.90;2.80;;;19.20;42.40;;;;;;5061587;28;20421;-60
2022/05/03 01:43:03;;;;;;;2.37;2.27;;;19.20;42.40;;;;;;5058664;28;20418;-61
2022/05/03 01:45:48;;;;;;;2.60;2.50;;;19.20;42.30;;;;;;5062315;28;20437;-61
2022/05/03 01:51:44;;;;;;;2.50;2.40;;;19.20;42.40;;;;;;5057445;28;20457;-60
2022/05/03 01:54:22;;;;;;;2.93;2.73;;;19.20;42.40;;;;;;5062735;28;20483;-60
2022/05/03 01:57:45;;;;;;;2.73;2.63;;;19.20;42.40;;;;;;5089922;28;20489;-60
2022/05/03 02:00:11;;;;;;;2.30;2.20;;;19.20;42.50;;;;;;5006819;28;20428;-60
2022/05/03 02:02:50;;;;;;;2.47;2.37;;;19.20;42.50;;;;;;5007150;28;20428;-60
2022/05/03 02:05:53;;;;;;;2.10;2.00;;;19.20;42.40;;;;;;5043815;28;20811;-61
2022/05/03 02:08:23;;;;;;;2.80;2.60;;;19.20;42.50;;;;;;5060136;28;20443;-60
2022/05/03 02:11:07;;;;;;;2.80;2.70;;;19.20;42.50;;;;;;5058413;28;20422;-61
2022/05/03 02:16:56;;;;;;;2.70;2.50;;;19.20;42.50;;;;;;5063248;28;20945;-59
2022/05/03 02:19:37;;;;;;;2.50;2.40;;;19.20;42.40;;;;;;5061914;28;20497;-60
2022/05/03 02:22:27;;;;;;;2.30;2.20;;;19.20;42.50;;;;;;5063713;28;20502;-60
2022/05/03 02:25:26;;;;;;;2.17;2.07;;;19.20;42.50;;;;;;5062539;28;20902;-60
2022/05/03 02:28:40;;;;;;;2.30;2.20;;;19.20;42.50;;;;;;5056451;28;20415;-61
2022/05/03 02:31:12;;;;;;;2.30;2.20;;;19.20;43.20;;;;;;5081406;28;20943;-60
2022/05/03 02:33:52;;;;;;;2.20;2.10;;;19.10;42.40;;;;;;5078678;28;20416;-61
2022/05/03 02:36:24;;;;;;;2.87;2.67;;;19.10;42.40;;;;;;5080370;28;21073;-60
2022/05/03 02:39:03;;;;;;;2.47;2.33;;;19.20;42.50;;;;;;5080310;28;20421;-60
2022/05/03 02:41:34;;;;;;;2.60;2.50;;;19.10;42.40;;;;;;5076605;28;20534;-61
2022/05/03 02:44:02;;;;;;;2.37;2.27;;;19.10;42.40;;;;;;5077539;28;20421;-59
2022/05/03 02:46:51;;;;;;;2.43;2.33;;;19.10;42.40;;;;;;5077991;28;20445;-60
2022/05/03 02:49:23;;;;;;;2.77;2.67;;;19.10;42.40;;;;;;5081123;28;20433;-60
2022/05/03 02:52:12;;;;;;;2.33;2.23;;;19.10;42.40;;;;;;5080505;28;20490;-60
2022/05/03 02:54:59;;;;;;;2.50;2.40;;;19.20;42.50;;;;;;5080157;27;20470;-60
2022/05/03 02:57:44;;;;;;;2.70;2.50;;;19.10;43.20;;;;;;5079667;28;20477;-59
2022/05/03 03:03:25;;;;;;;2.20;2.10;;;19.20;42.50;;;;;;5081020;28;20948;-59
2022/05/03 03:06:20;;;;;;;2.30;2.20;;;19.10;42.30;;;;;;5079174;28;20445;-60
2022/05/03 03:08:47;;;;;;;2.27;2.17;;;19.10;42.40;;;;;;5077628;28;20441;-60
2022/05/03 03:11:33;;;;;;;2.53;2.43;;;19.10;42.40;;;;;;5078153;28;20424;-60
2022/05/03 03:14:19;;;;;;;2.30;2.17;;;19.10;42.40;;;;;;5080191;28;20424;-61
2022/05/03 03:16:55;;;;;;;2.20;2.10;;;19.20;42.50;;;;;;5058181;28;20470;-60
2022/05/03 03:19:39;;;;;;;2.07;1.97;;;19.10;42.40;;;;;;5055954;28;20480;-60
2022/05/03 03:22:13;;;;;;;2.10;2.00;;;19.10;42.50;;;;;;5056575;28;20949;-61
2022/05/03 03:24:39;;;;;;;2.57;2.47;;;19.10;42.40;;;;;;5058294;28;20500;-60
2022/05/03 03:27:07;;;;;;;2.47;2.30;;;19.10;42.40;;;;;;5060570;28;20447;-61
2022/05/03 03:29:36;;;;;;;2.70;2.60;;;19.10;42.40;;;;;;5059027;28;20455;-60
2022/05/03 03:32:05;;;;;;;2.30;2.20;;;19.10;42.40;;;;;;5059465;28;20428;-61
2022/05/03 03:34:32;;;;;;;2.27;2.17;;;19.10;42.40;;;;;;5058028;28;20422;-61
2022/05/03 03:37:02;;;;;;;2.50;2.40;;;19.10;42.40;;;;;;5062183;28;20419;-60
2022/05/03 03:39:29;;;;;;;2.40;2.30;;;19.10;42.40;;;;;;5058605;28;20429;-59
2022/05/03 03:41:58;;;;;;;1.90;1.80;;;19.10;42.40;;;;;;5059850;28;20410;-61
2022/05/03 03:44:24;;;;;;;2.57;2.37;;;19.20;42.50;;;;;;5057112;28;20422;-60
2022/05/03 03:46:50;;;;;;;2.50;2.40;;;19.10;42.40;;;;;;5061760;28;20440;-60
2022/05/03 03:49:16;;;;;;;2.30;2.20;;;19.10;42.40;;;;;;5062066;28;20229;-60
2022/05/03 03:51:42;;;;;;;2.33;2.23;;;19.10;42.40;;;;;;5065351;28;20275;-60
2022/05/03 03:54:08;;;;;;;2.67;2.47;;;19.20;42.50;;;;;;5059023;28;20214;-59
2022/05/03 03:56:34;;;;;;;2.37;2.27;;;19.20;42.50;;;;;;5059323;28;20959;-59
2022/05/03 03:59:02;;;;;;;2.40;2.30;;;19.10;42.40;;;;;;5058518;28;20903;-60
2022/05/03 04:01:27;;;;;;;2.33;2.23;;;19.20;42.50;;;;;;5063847;28;20454;-59
2022/05/03 04:03:53;;;;;;;2.40;2.30;;;19.10;42.40;;;;;;5065029;28;20483;-60
2022/05/03 04:06:19;;;;;;;2.30;2.20;;;19.10;42.40;;;;;;5060842;28;20226;-60
2022/05/03 04:08:44;;;;;;;2.33;2.20;;;19.20;42.50;;;;;;5060857;28;20598;-60
2022/05/03 04:11:17;;;;;;;2.03;1.93;;;19.20;42.50;;;;;;5096956;28;20224;-61
2022/05/03 04:13:44;;;;;;;1.80;1.70;;;19.10;42.40;;;;;;5065192;28;20391;-60
2022/05/03 04:16:09;;;;;;;2.10;2.00;;;19.20;42.50;;;;;;5065271;28;20434;-60
2022/05/03 04:18:44;;;;;;;2.03;1.93;;;19.20;42.40;;;;;;5063594;28;20452;-60
2022/05/03 04:21:15;;;;;;;2.50;2.40;;;19.20;42.30;;;;;;5065289;28;20225;-60
2022/05/03 04:23:40;;;;;;;2.17;2.07;;;19.30;42.30;;;;;;5062244;28;20425;-60
2022/05/03 04:26:06;;;;;;;2.13;2.03;;;19.30;42.30;;;;;;5061394;28;20459;-59
2022/05/03 04:28:32;;;;;;;2.10;2.00;;;19.30;42.20;;;;;;5064207;28;20684;-60
2022/05/03 04:30:58;;;;;;;1.90;1.80;;;19.30;42.20;;;;;;5065354;28;20426;-60
2022/05/03 04:33:23;;;;;;;2.43;2.33;;;19.40;42.20;;;;;;5062884;28;20587;-59
2022/05/03 04:35:49;;;;;;;2.00;1.90;;;19.40;42.20;;;;;;5063160;28;20226;-60
2022/05/03 04:38:14;;;;;;;2.00;1.90;;;19.40;42.20;;;;;;5062101;28;20227;-60
2022/05/03 04:40:40;;;;;;;2.10;2.00;;;19.40;42.20;;;;;;5062076;28;20226;-59
2022/05/03 04:43:05;;;;;;;2.67;2.47;;;19.40;42.20;;;;;;5064130;28;20300;-61
2022/05/03 04:45:31;;;;;;;1.90;1.80;;;19.40;42.20;;;;;;5068167;28;20221;-60
2022/05/03 04:47:56;;;;;;;2.13;2.00;;;19.40;42.20;;;;;;5062448;28;20230;-59
2022/05/03 04:50:22;;;;;;;1.97;1.87;;;19.40;42.20;;;;;;5064110;28;20221;-60
2022/05/03 04:52:48;;;;;;;2.20;2.10;;;19.40;42.20;;;;;;5062276;28;20233;-60
2022/05/03 04:55:14;;;;;;;2.00;1.90;;;19.40;42.20;;;;;;5062506;28;20567;-61
2022/05/03 04:57:39;;;;;;;2.07;1.97;;;19.40;42.30;;;;;;5064615;28;20440;-62
2022/05/03 05:00:05;;;;;;;1.70;1.60;;;19.40;42.30;;;;;;5065856;28;20240;-60
2022/05/03 05:02:32;;;;;;;2.20;2.10;;;19.40;42.30;;;;;;5063902;28;20572;-61
2022/05/03 05:04:58;;;;;;;2.13;2.03;;;19.40;42.30;;;;;;5063374;28;20545;-61
2022/05/03 05:07:23;;;;;;;1.70;1.60;;;19.40;42.30;;;;;;5060810;28;20534;-60
2022/05/03 05:12:33;;;;;;;2.00;1.90;;;19.30;42.20;;;;;;5062605;28;20313;-63
2022/05/03 05:14:59;;;;;;;2.07;1.97;;;19.30;42.20;;;;;;5069158;28;20533;-61
2022/05/03 05:17:25;;;;;;;1.90;1.80;;;19.30;42.20;;;;;;5068083;28;20241;-65
2022/05/03 05:19:50;;;;;;;2.20;2.10;;;19.30;42.20;;;;;;5056157;28;20226;-62
2022/05/03 05:22:16;;;;;;;1.73;1.63;;;19.30;42.30;;;;;;5066006;28;20222;-59
2022/05/03 05:24:41;;;;;;;2.10;2.00;;;19.30;42.30;;;;;;5062372;28;20226;-62
2022/05/03 05:27:07;;;;;;;2.07;1.97;;;19.30;42.30;;;;;;5064012;28;20219;-62
2022/05/03 05:29:34;;;;;;;2.20;1.93;;;19.30;42.30;;;;;;5058345;28;20238;-63
2022/05/03 05:31:59;;;;;;;2.13;2.03;;;19.30;42.20;;;;;;5062685;28;20320;-62
2022/05/03 05:34:25;;;;;;;2.10;1.90;;;19.30;42.30;;;;;;5059859;28;20534;-61
2022/05/03 05:36:50;;;;;;;1.80;1.70;;;19.30;42.20;;;;;;5061785;28;20246;-61
2022/05/03 05:39:16;;;;;;;1.90;1.80;;;19.30;42.30;;;;;;5062778;28;20222;-60
2022/05/03 05:41:41;;;;;;;2.63;2.30;;;19.30;42.30;;;;;;5061815;28;20218;-60
2022/05/03 05:44:09;;;;;;;2.17;2.07;;;19.30;42.30;;;;;;5061426;28;20217;-60
2022/05/03 05:46:34;;;;;;;1.83;1.73;;;19.30;42.30;;;;;;5066565;28;20233;-61
2022/05/03 05:49:00;;;;;;;1.90;1.80;;;19.30;42.30;;;;;;5062355;28;20458;-60
2022/05/03 05:51:26;;;;;;;2.10;2.00;;;19.30;42.30;;;;;;5059224;28;20214;-60
2022/05/03 05:53:51;;;;;;;3.00;1.87;;;19.30;42.30;;;;;;5059352;28;20297;-60
2022/05/03 05:56:17;;;;;;;2.07;1.80;;;19.30;42.20;;;;;;5059227;28;20683;-60
2022/05/03 05:58:42;;;;;;;4.60;1.90;;;19.30;42.30;;;;;;5059686;28;20252;-60
2022/05/03 06:01:08;;;;;;;2.00;1.90;;;19.30;42.20;;;;;;5061867;28;20259;-60
2022/05/03 06:03:34;;;;;;;4.43;1.83;;;19.30;42.20;;;;;;5060655;28;20230;-59
2022/05/03 06:06:00;;;;;;;1.70;1.60;;;19.30;42.20;;;;;;5060851;28;20220;-60
2022/05/03 06:08:25;;;;;;;1.87;1.77;;;19.30;42.20;;;;;;5060475;28;20438;-59
2022/05/03 06:10:51;;;;;;;1.80;1.70;;;19.30;42.20;;;;;;5060132;28;20664;-60
2022/05/03 06:13:18;;;;;;;2.23;2.07;;;19.30;42.20;;;;;;5061153;28;20294;-60
2022/05/03 06:15:43;;;;;;;2.07;1.97;;;19.30;42.20;;;;;;5057918;28;20318;-61
2022/05/03 06:18:09;;;;;;;1.90;1.80;;;19.30;42.20;;;;;;5061762;28;21044;-59
2022/05/03 06:20:36;;;;;;;1.93;1.83;;;19.30;42.20;;;;;;5062066;28;20439;-59
2022/05/03 06:23:02;;;;;;;1.83;1.73;;;19.30;42.20;;;;;;5058902;28;20271;-62
2022/05/03 06:25:28;;;;;;;1.80;1.70;;;19.30;42.20;;;;;;5062022;28;20482;-60
2022/05/03 06:27:54;;;;;;;1.90;1.80;;;19.30;42.20;;;;;;5058706;28;20894;-60
2022/05/03 06:30:19;;;;;;;2.00;1.90;;;19.30;42.20;;;;;;5060305;28;20230;-60
2022/05/03 06:32:45;;;;;;;1.80;1.70;;;19.30;42.20;;;;;;5058034;28;20282;-59
2022/05/03 06:35:12;;;;;;;2.20;1.97;;;19.30;42.30;;;;;;5060269;28;20210;-61
2022/05/03 06:37:41;;;;;;;1.60;1.50;;;19.30;42.20;;;;;;5059063;28;20222;-60
2022/05/03 06:40:08;;;;;;;1.83;1.73;;;19.30;42.20;;;;;;5056606;28;20426;-59
2022/05/03 06:42:39;;;;;;;2.20;2.10;;;19.30;42.20;;;;;;5055998;28;20442;-60
2022/05/03 06:45:09;;;;;;;2.10;2.00;;;19.30;42.20;;;;;;5058722;28;20432;-59
2022/05/03 06:47:35;;;;;;;2.33;1.60;;;19.30;42.20;;;;;;5061513;28;20447;-60
2022/05/03 06:50:01;;;;;;;1.90;1.70;;;19.30;42.20;;;;;;5059638;28;20462;-60
2022/05/03 06:52:27;;;;;;;1.90;1.80;;;19.40;42.30;;;;;;5061008;28;20217;-60
2022/05/03 06:54:53;;;;;;;3.40;1.90;;;19.40;42.30;;;;;;5057751;28;20457;-60
2022/05/03 06:57:18;;;;;;;1.67;1.57;;;19.40;42.30;;;;;;5060740;28;20246;-60
2022/05/03 06:59:44;;;;;;;1.90;1.80;;;19.30;42.20;;;;;;5059036;28;20238;-60
2022/05/03 07:02:09;;;;;;;1.77;1.67;;;19.30;42.20;;;;;;5056729;28;20218;-61
2022/05/03 07:04:35;;;;;;;1.90;1.80;;;19.40;42.40;;;;;;5055772;28;20284;-60
2022/05/03 07:07:01;;;;;;;1.70;1.60;;;19.40;42.30;;;;;;5059512;28;20213;-60
2022/05/03 07:09:26;;;;;;;1.87;1.77;;;19.40;42.30;;;;;;5055859;28;20257;-60
2022/05/03 07:11:52;;;;;;;1.70;1.60;;;19.40;42.30;;;;;;5060844;28;20224;-60
2022/05/03 07:14:18;;;;;;;1.60;1.50;;;19.40;42.30;;;;;;5057914;28;20680;-60
2022/05/03 07:16:44;;;;;;;1.60;1.50;;;19.40;42.30;;;;;;5055530;28;20281;-59
2022/05/03 07:24:38;;;;;;;1.70;1.60;;;19.40;42.30;;;;;;5061479;28;20496;-60
2022/05/03 07:27:04;;;;;;;2.00;1.90;;;19.40;42.30;;;;;;5058884;28;20446;-60
2022/05/03 07:29:30;;;;;;;1.90;1.80;;;19.40;42.30;;;;;;5061746;28;20697;-60
2022/05/03 07:31:55;;;;;;;1.60;1.50;;;19.40;42.30;;;;;;5062832;28;20618;-60
2022/05/03 07:34:21;;;;;;;2.00;1.90;;;19.30;42.30;;;;;;5057515;28;20233;-60
2022/05/03 07:36:46;;;;;;;1.53;1.43;;;19.40;42.30;;;;;;5063164;28;20232;-60
2022/05/03 07:39:12;;;;;;;1.80;1.70;;;19.40;42.30;;;;;;5060853;28;20214;-60
2022/05/03 07:41:37;;;;;;;1.80;1.70;;;19.40;42.30;;;;;;5058346;28;20663;-60
2022/05/03 07:44:03;;;;;;;1.70;1.60;;;19.40;42.30;;;;;;5059304;28;20797;-60
2022/05/03 07:46:28;;;;;;;1.70;1.60;;;19.40;42.30;;;;;;5058849;28;20585;-62
2022/05/03 07:48:56;;;;;;;1.90;1.80;;;19.40;42.30;;;;;;5058577;28;20230;-61
2022/05/03 07:51:21;;;;;;;2.00;1.90;;;19.40;42.30;;;;;;5057588;28;20217;-59
2022/05/03 07:53:47;;;;;;;1.63;1.53;;;19.40;42.30;;;;;;5059670;28;20838;-60
2022/05/03 07:56:12;;;;;;;1.83;1.73;;;19.40;42.20;;;;;;5061825;28;20226;-60
2022/05/03 07:58:38;;;;;;;1.70;1.60;;;19.30;42.20;;;;;;5061445;28;20246;-60
2022/05/03 08:01:07;;;;;;;1.70;1.60;;;19.40;42.30;;;;;;5059357;28;20727;-60
2022/05/03 08:03:33;;;;;;;1.70;1.60;;;19.40;42.30;;;;;;5058011;28;20305;-60
2022/05/03 08:05:59;;;;;;;1.87;1.77;;;19.40;42.30;;;;;;5059816;28;21052;-62
2022/05/03 08:08:25;;;;;;;1.60;1.50;;;19.40;42.30;;;;;;5063159;28;20230;-60
2022/05/03 08:10:51;;;;;;;1.83;1.73;;;19.40;42.30;;;;;;5057596;28;20226;-60
2022/05/03 08:13:16;;;;;;;1.80;1.70;;;19.40;42.30;;;;;;5056874;28;20454;-60
2022/05/03 08:15:42;;;;;;;2.00;1.90;;;19.40;42.30;;;;;;5062343;28;20213;-60
2022/05/03 08:18:07;;;;;;;1.83;1.60;;;19.40;42.20;;;;;;5059827;28;20221;-60
2022/05/03 08:20:33;;;;;;;1.90;1.80;;;19.40;42.30;;;;;;5061075;28;20222;-60
2022/05/03 08:23:00;;;;;;;1.73;1.60;;;19.40;42.30;;;;;;5060899;28;20260;-61
2022/05/03 08:25:26;;;;;;;2.33;1.77;;;19.40;42.30;;;;;;5055247;28;20805;-61
2022/05/03 08:27:52;;;;;;;1.90;1.80;;;19.40;43.00;;;;;;5056970;28;20405;-60
2022/05/03 08:30:17;;;;;;;1.70;1.60;;;19.40;42.30;;;;;;5055909;28;20519;-60
2022/05/03 08:32:43;;;;;;;1.60;1.50;;;19.40;42.30;;;;;;5059006;28;20352;-59
2022/05/03 08:35:09;;;;;;;1.73;1.63;;;19.40;42.30;;;;;;5065799;28;20347;-61
2022/05/03 08:43:05;;;;;;;2.17;2.07;;;19.40;42.30;;;;;;5064687;28;20485;-61
2022/05/03 08:45:32;;;;;;;1.60;1.50;;;19.40;42.30;;;;;;5065642;28;20442;-60
2022/05/03 08:48:00;;;;;;;1.90;1.80;;;19.40;42.30;;;;;;5063913;28;20478;-60
2022/05/03 08:50:27;;;;;;;1.90;1.80;;;19.40;42.30;;;;;;5059003;28;20563;-60
2022/05/03 08:52:59;;;;;;;1.70;1.60;;;19.40;42.30;;;;;;5064163;28;20447;-60
2022/05/03 08:55:25;;;;;;;1.70;1.60;;;19.40;42.20;;;;;;5064198;28;20425;-60
2022/05/03 08:57:51;;;;;;;1.60;1.50;;;19.40;42.30;;;;;;5060842;28;20426;-60
2022/05/03 09:00:18;;;;;;;1.80;1.70;;;19.40;42.20;;;;;;5061580;28;20425;-59
2022/05/03 09:02:49;;;;;;;1.70;1.60;;;19.40;42.20;;;;;;5059701;28;21005;-60
2022/05/03 09:05:16;;;;;;;1.70;1.60;;;19.40;42.20;;;;;;5059312;28;20419;-59
2022/05/03 09:07:49;;;;;;;1.80;1.70;;;19.40;42.20;;;;;;5057972;28;20531;-60
2022/05/03 09:10:20;;;;;;;1.60;1.50;;;19.40;42.30;;;;;;5063206;28;20538;-59
2022/05/03 09:12:47;;;;;;;1.90;1.80;;;19.40;42.30;;;;;;5063889;28;20451;-60
2022/05/03 09:15:13;;;;;;;2.07;1.40;;;19.40;42.30;;;;;;5061778;28;20535;-60
2022/05/03 09:17:46;;;;;;;1.53;1.43;;;19.40;42.30;;;;;;5058052;28;20967;-60
2022/05/03 09:26:11;;;;;;;1.57;1.47;;;19.40;42.30;;;;;;5062511;28;20478;-60
2022/05/03 09:28:44;;;;;;;1.80;1.70;;;19.40;42.30;;;;;;5056992;28;20471;-60
2022/05/03 09:31:09;;;;;;;2.03;1.83;;;19.40;42.30;;;;;;5063306;28;20483;-60
2022/05/03 09:33:37;;;;;;;1.50;1.40;;;19.40;42.40;;;;;;5060260;28;20860;-59
2022/05/03 09:36:10;;;;;;;1.70;1.60;;;19.40;42.30;;;;;;5066083;28;20218;-60
2022/05/03 09:38:54;;;;;;;1.60;1.50;;;19.40;42.30;;;;;;5062421;28;20418;-60
2022/05/03 09:41:19;;;;;;;1.80;1.70;;;19.40;42.20;;;;;;5058699;28;20901;-61
2022/05/03 09:44:01;;;;;;;1.60;1.50;;;19.40;42.30;;;;;;5059597;28;20458;-61
2022/05/03 09:46:28;;;;;;;1.43;1.33;;;19.40;42.30;;;;;;5059392;28;20248;-60
2022/05/03 09:48:54;;;;;;;1.50;1.40;;;19.40;42.30;;;;;;5060718;28;20474;-60
2022/05/03 09:51:21;;;;;;;2.90;1.50;;;19.40;42.30;;;;;;5060764;28;20455;-60
2022/05/03 09:53:59;;;;;;;1.80;1.70;;;19.40;42.30;;;;;;5059156;28;20525;-60
2022/05/03 09:56:30;;;;;;;2.80;1.50;;;19.40;42.20;;;;;;5061430;28;20442;-60
2022/05/03 09:59:02;;;;;;;1.70;1.60;;;19.40;42.30;;;;;;5058302;28;20447;-61
2022/05/03 10:01:30;;;;;;;1.70;1.60;;;19.40;42.30;;;;;;5063593;28;20442;-60
2022/05/03 10:03:56;;;;;;;1.50;1.40;;;19.40;42.30;;;;;;5063494;28;20978;-60
2022/05/03 10:06:23;;;;;;;1.57;1.47;;;19.40;42.30;;;;;;5062417;28;20443;-60
2022/05/03 10:08:49;;;;;;;1.60;1.50;;;19.40;42.30;;;;;;5058261;28;20973;-61
2022/05/03 10:11:18;;;;;;;1.77;1.40;;;19.40;42.30;;;;;;5061749;28;20451;-60
2022/05/03 10:13:44;;;;;;;1.50;1.40;;;19.40;42.30;;;;;;5060221;28;20442;-61
2022/05/03 10:21:53;;;;;;;1.43;1.33;;;19.40;42.30;;;;;;5083669;28;20436;-60
2022/05/03 10:24:19;;;;;;;1.60;1.50;;;19.40;42.30;;;;;;5079488;28;20470;-60
2022/05/03 10:27:03;;;;;;;1.70;1.60;;;19.40;42.40;;;;;;5076851;28;20916;-60
2022/05/03 10:29:36;;;;;;;1.83;1.70;;;19.40;42.40;;;;;;5081430;28;20511;-60
2022/05/03 10:32:14;;;;;;;1.60;1.50;;;19.40;42.40;;;;;;5080776;27;20448;-60
2022/05/03 10:34:40;;;;;;;2.43;1.60;;;19.40;42.40;;;;;;5080637;28;20506;-61
2022/05/03 10:37:13;;;;;;;1.90;1.80;;;19.40;42.30;;;;;;5080624;28;20446;-59
2022/05/03 10:39:48;;;;;;;1.60;1.50;;;19.40;42.40;;;;;;5076751;28;20679;-61
2022/05/03 10:42:15;;;;;;;1.67;1.57;;;19.40;42.40;;;;;;5082028;28;20438;-61
2022/05/03 10:45:05;;;;;;;1.60;1.50;;;19.40;42.40;;;;;;5082260;28;20517;-61
2022/05/03 10:47:47;;;;;;;1.60;1.50;;;19.40;42.40;;;;;;5073541;28;20521;-60
2022/05/03 10:50:13;;;;;;;1.70;1.60;;;19.40;42.40;;;;;;5080101;28;20489;-61
2022/05/03 10:52:59;;;;;;;1.70;1.60;;;19.40;42.40;;;;;;5079191;28;20478;-61
2022/05/03 10:55:26;;;;;;;1.63;1.53;;;19.40;42.40;;;;;;5069184;28;20224;-60
2022/05/03 10:58:16;;;;;;;1.77;1.67;;;19.40;42.40;;;;;;5080733;28;20453;-59
2022/05/03 11:01:17;;;;;;;1.53;1.43;;;19.40;42.40;;;;;;5058581;28;20446;-60
2022/05/03 11:03:51;;;;;;;1.80;1.70;;;19.40;42.50;;;;;;5057060;28;20440;-60
2022/05/03 11:06:18;;;;;;;1.53;1.43;;;19.40;42.50;;;;;;5061102;28;20450;-60
2022/05/03 11:11:39;;;;;;;1.50;1.40;;;19.40;42.40;;;;;;5061747;28;20812;-60
2022/05/03 11:16:43;;;;;;;1.57;1.47;;;19.40;42.50;;;;;;5056873;28;20819;-60
2022/05/03 11:19:10;;;;;;;1.60;1.50;;;19.40;42.50;;;;;;5061141;28;20814;-60
2022/05/03 11:21:36;;;;;;;1.60;1.50;;;19.40;42.40;;;;;;5059436;28;20450;-60
2022/05/03 11:24:02;;;;;;;2.50;2.03;;;19.40;42.50;;;;;;5059952;28;20447;-60
2022/05/03 11:26:28;;;;;;;1.90;1.80;;;19.40;42.50;;;;;;5055977;28;20485;-60
2022/05/03 11:28:57;;;;;;;2.10;2.00;;;19.40;42.50;;;;;;5059552;28;20433;-60
2022/05/03 11:31:25;;;;;;;1.60;1.50;;;19.40;42.50;;;;;;5061241;28;20217;-61
2022/05/03 11:33:58;;;;;;;1.87;1.77;;;19.40;42.50;;;;;;5057128;28;20903;-60
2022/05/03 11:36:25;;;;;;;1.80;1.70;;;19.40;42.50;;;;;;5058709;28;20435;-61
2022/05/03 11:38:55;;;;;;;1.60;1.50;;;19.40;42.50;;;;;;5056815;28;21021;-61
2022/05/03 11:41:25;;;;;;;1.73;1.63;;;19.40;42.50;;;;;;5064512;28;20943;-59
2022/05/03 11:43:52;;;;;;;1.70;1.60;;;19.40;42.40;;;;;;5060620;28;20439;-60
2022/05/03 11:46:19;;;;;;;1.77;1.67;;;19.40;42.50;;;;;;5054451;28;20414;-61
2022/05/03 11:48:49;;;;;;;1.97;1.87;;;19.40;43.30;;;;;;5061012;28;20466;-60
2022/05/03 11:57:27;;;;;;;1.43;1.33;;;19.40;42.50;;;;;;5043146;28;20475;-60
2022/05/03 11:59:55;;;;;;;1.70;1.60;;;19.30;42.40;;;;;;5060741;28;20446;-60
2022/05/03 12:02:29;;;;;;;1.73;1.63;;;19.40;42.50;;;;;;5057480;28;20460;-59
2022/05/03 12:05:04;;;;;;;1.90;1.80;;;19.30;42.50;;;;;;5056194;28;20542;-60
2022/05/03 12:07:46;;;;;;;2.03;1.93;;;19.30;42.50;;;;;;5072810;28;20446;-61
2022/05/03 12:10:16;;;;;;;1.60;1.50;;;19.30;42.40;;;;;;5080678;27;20452;-60
2022/05/03 12:12:44;;;;;;;1.70;1.60;;;19.30;42.50;;;;;;5081073;28;20417;-60
2022/05/03 12:15:21;;;;;;;2.00;1.90;;;19.30;42.50;;;;;;5080055;27;20445;-61
2022/05/03 12:18:03;;;;;;;1.93;1.83;;;19.30;42.50;;;;;;5086782;28;20437;-60
2022/05/03 12:20:41;;;;;;;1.90;1.80;;;19.30;42.40;;;;;;5083970;28;20934;-59
2022/05/03 12:23:12;;;;;;;2.10;2.00;;;19.40;42.50;;;;;;5081782;27;20897;-60
2022/05/03 12:25:38;;;;;;;1.83;1.73;;;19.40;42.50;;;;;;5082656;27;20855;-60
2022/05/03 12:28:05;;;;;;;1.60;1.50;;;19.30;42.50;;;;;;5081432;27;20446;-59
2022/05/03 12:30:31;;;;;;;2.20;2.00;;;19.30;42.40;;;;;;5088792;27;20233;-60
2022/05/03 12:33:08;;;;;;;1.70;1.60;;;19.30;42.40;;;;;;5082956;28;20438;-60
2022/05/03 12:35:36;;;;;;;2.10;1.87;;;19.30;42.50;;;;;;5082744;27;20413;-59
2022/05/03 12:38:13;;;;;;;2.10;2.00;;;19.30;42.40;;;;;;5080458;27;20425;-59
2022/05/03 12:40:53;;;;;;;1.93;1.83;;;19.30;42.50;;;;;;5082306;28;20460;-60
2022/05/03 12:43:21;;;;;;;1.80;1.70;;;19.30;42.50;;;;;;5085047;28;20442;-60
2022/05/03 12:46:07;;;;;;;1.80;1.70;;;19.30;42.50;;;;;;5080205;28;20460;-60
2022/05/03 12:48:36;;;;;;;1.90;1.80;;;19.30;42.50;;;;;;5063200;28;20478;-60
2022/05/03 12:51:02;;;;;;;1.87;1.77;;;19.30;42.50;;;;;;5059053;28;20454;-60
2022/05/03 12:53:30;;;;;;;1.90;1.80;;;19.30;42.50;;;;;;5066592;28;20409;-61
2022/05/03 12:55:58;;;;;;;1.73;1.63;;;19.30;42.50;;;;;;5061853;28;21026;-61
2022/05/03 12:58:27;;;;;;;1.60;1.50;;;19.30;42.50;;;;;;5060968;28;20439;-60
2022/05/03 13:00:57;;;;;;;2.07;1.97;;;19.30;42.50;;;;;;5062285;28;20410;-59
2022/05/03 13:03:24;;;;;;;1.90;1.80;;;19.30;42.50;;;;;;5058101;28;20902;-60
2022/05/03 13:05:50;;;;;;;2.10;2.00;;;19.30;42.50;;;;;;5066386;28;20509;-60
2022/05/03 13:08:17;;;;;;;1.90;1.80;;;19.30;42.50;;;;;;5058834;28;20461;-60
2022/05/03 13:10:43;;;;;;;2.13;1.93;;;19.30;42.50;;;;;;5063226;28;20434;-60
2022/05/03 13:13:10;;;;;;;1.80;1.70;;;19.30;42.50;;;;;;5061080;28;20449;-61
2022/05/03 13:15:37;;;;;;;2.00;1.90;;;19.30;42.50;;;;;;5063771;28;21177;-60
2022/05/03 13:18:03;;;;;;;2.03;1.93;;;19.30;42.50;;;;;;5063871;28;20429;-64
2022/05/03 13:20:29;;;;;;;1.60;1.50;;;19.30;42.40;;;;;;5061795;28;20462;-60
2022/05/03 13:22:55;;;;;;;1.70;1.60;;;19.30;42.50;;;;;;5060609;28;20516;-59
2022/05/03 13:25:21;;;;;;;1.90;1.80;;;19.30;42.50;;;;;;5061350;28;20218;-59
2022/05/03 13:27:48;;;;;;;2.00;1.90;;;19.30;42.50;;;;;;5057483;28;20726;-59
2022/05/03 13:30:15;;;;;;;1.80;1.70;;;19.30;42.40;;;;;;5063329;28;20793;-59
2022/05/03 13:32:40;;;;;;;1.80;1.70;;;19.30;42.50;;;;;;5061281;28;20451;-59
2022/05/03 13:35:07;;;;;;;1.70;1.60;;;19.30;42.50;;;;;;5059453;28;20444;-60
2022/05/03 13:40:29;;;;;;;1.80;1.70;;;19.30;42.50;;;;;;5061655;28;20865;-59
2022/05/03 13:42:59;;;;;;;1.90;1.80;;;19.30;42.50;;;;;;5062944;28;20446;-59
2022/05/03 13:45:26;;;;;;;1.70;1.60;;;19.30;42.50;;;;;;5060645;28;20446;-60
2022/05/03 13:47:51;;;;;;;1.87;1.77;;;19.30;42.50;;;;;;5062694;28;20425;-59
2022/05/03 13:50:17;;;;;;;1.80;1.70;;;19.30;42.50;;;;;;5058610;28;20794;-61
2022/05/03 13:52:43;;;;;;;1.50;1.40;;;19.30;42.50;;;;;;5063024;28;20221;-59
2022/05/03 13:55:09;;;;;;;1.80;1.70;;;19.30;42.50;;;;;;5064590;28;20577;-59